Aeroporto :
LOGIN :

Iscrizione | Disclaimer

   EN    FR    IT 

 










Sommario :    VFR   VFR Marginale   IFR   IFR Intensivo   IFR Molto Intensivo
Visibilità : 
Base nubi : 
>= 8 km
>= 3000ft
5 / 8 km
1000 / 3000 ft
1500m / 5 km
500 / 1000 ft
800 / 1500m
200 / 500 ft
< 800m
< 200 ft
Simboli :   Temporali  Nebbia  Neve Forte  Precipitazioni Forti  Vento > 20 kt
SIGMETs :   Varie  Temporali  Ghiacco  Turbolenza  Onda orograficha  Ceneri Vulcaniche






- Altitudine del aeroporto : 1017 ft


LFSL - Brive Souillac

ULTIMO METAR :
  • 170330Z AUTO 17009KT CAVOK 11/08 Q1020 BECMG BKN014 BKN030

METARs OBSOLETI :
  • 170300Z AUTO 16009KT 130V190 CAVOK 10/07 Q1020 NOSIG
  • 170230Z AUTO 17007KT 140V200 CAVOK 10/07 Q1020
  • 170200Z AUTO 16007KT CAVOK 10/07 Q1020
  • 170130Z AUTO 14005KT CAVOK 10/07 Q1020
  • 170100Z AUTO 14006KT CAVOK 10/07 Q1020

TAF TAF LFSL
Valido dal 17 a 03 ore il 17 a 12 ore UTC


170200Z 1703/1712 16005KT CAVOK
BECMG 1705/1706 BKN014 BKN030
BECMG 1707/1708 RA BKN006



MetMap, La meteo Aeronautica in un colpo d'occhio ! - Copyright ORBIFLY Dicembre 2007 - Disclaimer

ORBIFLY MET'MAP TEAM :

Programmazione e sviluppo : Alexandra Zaïnal
Concezione : Baudouin d'Aumeries
Aiuto per la programmazione : Marc-Olivier Méhu
Supporto tecnico e logistico : Manuel Goepfert
Aiuto per la traduzione : Arnaldo La Scala

Contatto : metmap@orbifly.com




FONTI E CREDITI :

   NOAA